createdAt,value
2019-05-23T00:01:41.402Z,13.08
2019-05-23T00:04:26.602Z,12.93
2019-05-23T00:06:58.692Z,11.30
2019-05-23T00:09:30.170Z,14.77
2019-05-23T00:12:04.563Z,15.10
2019-05-23T00:14:39.952Z,13.10
2019-05-23T00:17:15.027Z,13.40
2019-05-23T00:19:44.658Z,15.07
2019-05-23T00:22:14.803Z,14.57
2019-05-23T00:24:45.964Z,15.67
2019-05-23T00:27:16.330Z,12.57
2019-05-23T00:29:48.876Z,13.03
2019-05-23T00:32:22.570Z,12.70
2019-05-23T00:34:53.922Z,14.37
2019-05-23T00:37:24.929Z,13.07
2019-05-23T00:39:55.323Z,14.90
2019-05-23T00:42:26.158Z,13.93
2019-05-23T00:44:57.648Z,14.17
2019-05-23T00:47:28.698Z,16.60
2019-05-23T00:49:58.363Z,17.40
2019-05-23T00:52:29.089Z,17.13
2019-05-23T00:55:01.129Z,16.07
2019-05-23T00:57:31.461Z,14.33
2019-05-23T01:00:01.935Z,14.77
2019-05-23T01:02:33.814Z,15.20
2019-05-23T01:05:05.194Z,14.60
2019-05-23T01:07:35.289Z,15.37
2019-05-23T01:10:09.974Z,15.63
2019-05-23T01:12:40.484Z,16.13
2019-05-23T01:15:11.149Z,15.50
2019-05-23T01:17:42.330Z,14.90
2019-05-23T01:20:14.810Z,16.37
2019-05-23T01:22:45.885Z,16.10
2019-05-23T01:25:18.350Z,14.90
2019-05-23T01:27:47.982Z,15.63
2019-05-23T01:30:23.465Z,15.13
2019-05-23T01:32:55.039Z,13.43
2019-05-23T01:35:26.052Z,15.13
2019-05-23T01:37:56.914Z,16.57
2019-05-23T01:40:27.758Z,15.30
2019-05-23T01:42:58.392Z,15.93
2019-05-23T01:45:28.902Z,14.70
2019-05-23T01:47:59.247Z,20.33
2019-05-23T01:50:29.166Z,17.30
2019-05-23T01:52:59.393Z,17.67
2019-05-23T01:55:29.799Z,17.47
2019-05-23T01:57:59.615Z,18.23
2019-05-23T02:00:31.469Z,18.57
2019-05-23T02:03:01.122Z,21.20
2019-05-23T02:05:31.494Z,18.13
2019-05-23T02:08:02.531Z,21.93
2019-05-23T02:10:32.654Z,19.00
2019-05-23T02:13:02.229Z,18.37
2019-05-23T02:15:33.604Z,20.73
2019-05-23T02:18:04.612Z,19.10
2019-05-23T02:20:35.192Z,17.30
2019-05-23T02:23:06.200Z,19.53
2019-05-23T02:25:36.686Z,19.77
2019-05-23T02:28:08.359Z,20.40
2019-05-23T02:30:39.420Z,17.27
2019-05-23T02:33:10.216Z,18.87
2019-05-23T02:35:40.724Z,16.70
2019-05-23T02:38:11.121Z,16.53
2019-05-23T02:40:43.924Z,16.63
2019-05-23T02:43:19.769Z,17.93
2019-05-23T02:45:55.258Z,17.63
2019-05-23T02:48:29.056Z,19.03
2019-05-23T02:51:03.512Z,18.70
2019-05-23T02:53:37.480Z,18.80
2019-05-23T02:56:11.954Z,19.17
2019-05-23T02:59:28.406Z,18.60
2019-05-23T03:02:36.368Z,18.77
2019-05-23T03:05:10.468Z,17.33
2019-05-23T03:07:40.804Z,20.87
2019-05-23T03:10:13.657Z,19.53
2019-05-23T03:12:46.319Z,20.87
2019-05-23T03:15:16.997Z,18.43
2019-05-23T03:17:54.865Z,20.13
2019-05-23T03:20:28.346Z,19.17
2019-05-23T03:23:07.181Z,17.23
2019-05-23T03:25:41.493Z,20.07
2019-05-23T03:28:14.672Z,19.57
2019-05-23T03:30:49.005Z,18.40
2019-05-23T03:33:20.761Z,20.97
2019-05-23T03:35:51.954Z,18.07
2019-05-23T03:38:21.701Z,18.57
2019-05-23T03:40:51.320Z,18.47
2019-05-23T03:43:21.310Z,18.87
2019-05-23T03:45:52.687Z,20.13
2019-05-23T03:48:24.244Z,19.10
2019-05-23T03:50:55.898Z,21.30
2019-05-23T03:53:27.568Z,18.17
2019-05-23T03:55:59.417Z,19.77
2019-05-23T03:58:30.008Z,23.20
2019-05-23T04:01:01.417Z,20.13
2019-05-23T04:03:31.614Z,18.00
2019-05-23T04:06:02.051Z,21.77
2019-05-23T04:08:32.395Z,20.30
2019-05-23T04:11:02.155Z,19.07
2019-05-23T04:13:31.874Z,21.83
2019-05-23T04:16:01.989Z,20.73
2019-05-23T04:18:33.136Z,21.83
2019-05-23T04:21:02.709Z,19.23
2019-05-23T04:23:32.600Z,19.63
2019-05-23T04:26:02.320Z,19.87
2019-05-23T04:28:32.983Z,18.93
2019-05-23T04:31:02.995Z,20.30
2019-05-23T04:33:33.082Z,22.30
2019-05-23T04:36:03.339Z,18.83
2019-05-23T04:38:36.236Z,20.60
2019-05-23T04:41:04.931Z,21.07
2019-05-23T04:43:34.483Z,21.13
2019-05-23T04:46:04.865Z,21.40
2019-05-23T04:48:34.428Z,19.73
2019-05-23T04:51:05.778Z,19.50
2019-05-23T04:53:36.128Z,20.90
2019-05-23T04:56:06.678Z,21.43
2019-05-23T04:58:36.878Z,19.07
2019-05-23T05:01:07.238Z,18.43
2019-05-23T05:03:36.867Z,19.80
2019-05-23T05:06:07.641Z,18.87
2019-05-23T05:08:37.837Z,17.17
2019-05-23T05:11:08.547Z,17.77
2019-05-23T05:13:39.317Z,17.07
2019-05-23T05:16:09.738Z,19.47
2019-05-23T05:18:39.843Z,19.63
2019-05-23T05:21:10.183Z,20.00
2019-05-23T05:23:39.803Z,18.50
2019-05-23T05:26:14.096Z,21.87
2019-05-23T05:28:43.742Z,23.17
2019-05-23T05:31:13.359Z,21.83
2019-05-23T05:33:43.224Z,22.17
2019-05-23T05:36:12.945Z,30.43
2019-05-23T05:38:43.475Z,27.93
2019-05-23T05:41:13.643Z,29.67
2019-05-23T05:43:43.541Z,24.23
2019-05-23T05:46:13.952Z,23.80
2019-05-23T05:48:43.616Z,21.63
2019-05-23T05:51:13.455Z,21.07
2019-05-23T05:53:43.281Z,21.87
2019-05-23T05:56:12.930Z,26.53
2019-05-23T05:58:43.581Z,21.97
2019-05-23T06:01:30.902Z,22.30
2019-05-23T06:03:47.574Z,24.50
2019-05-23T06:06:25.209Z,22.53
2019-05-23T06:08:56.483Z,21.77
2019-05-23T06:11:26.677Z,24.10
2019-05-23T06:13:56.272Z,22.33
2019-05-23T06:16:26.866Z,21.43
2019-05-23T06:18:57.237Z,20.97
2019-05-23T06:21:28.922Z,22.60
2019-05-23T06:23:59.704Z,22.13
2019-05-23T06:26:29.550Z,23.53
2019-05-23T06:28:59.115Z,23.57
2019-05-23T06:31:29.874Z,23.07
2019-05-23T06:33:59.712Z,23.27
2019-05-23T06:36:29.831Z,23.73
2019-05-23T06:38:59.812Z,25.63
2019-05-23T06:41:29.920Z,23.87
2019-05-23T06:44:00.236Z,25.37
2019-05-23T06:46:30.320Z,24.17
2019-05-23T06:49:00.216Z,22.03
2019-05-23T06:51:29.847Z,23.03
2019-05-23T06:53:59.771Z,25.70
2019-05-23T06:56:29.609Z,21.80
2019-05-23T06:58:59.169Z,22.33
2019-05-23T07:01:28.883Z,23.47
2019-05-23T07:03:58.941Z,21.13
2019-05-23T07:06:28.876Z,20.97
2019-05-23T07:08:59.305Z,22.80
2019-05-23T07:11:29.214Z,20.90
2019-05-23T07:13:58.906Z,24.00
2019-05-23T07:16:28.447Z,23.33
2019-05-23T07:18:58.833Z,22.23
2019-05-23T07:21:29.381Z,24.60
2019-05-23T07:23:58.969Z,20.60
2019-05-23T07:26:29.993Z,21.40
2019-05-23T07:29:00.222Z,20.93
2019-05-23T07:31:31.405Z,19.53
2019-05-23T07:34:02.643Z,25.07
2019-05-23T07:36:33.421Z,20.57
2019-05-23T07:39:03.202Z,21.10
2019-05-23T07:41:32.831Z,22.13
2019-05-23T07:44:03.181Z,22.10
2019-05-23T07:46:33.358Z,19.73
2019-05-23T07:49:03.422Z,18.60
2019-05-23T07:51:32.939Z,16.97
2019-05-23T07:54:02.356Z,17.07
2019-05-23T07:56:39.235Z,17.87
2019-05-23T07:59:09.465Z,17.30
2019-05-23T08:01:45.098Z,14.13
2019-05-23T08:04:22.033Z,13.63
2019-05-23T08:06:48.931Z,13.10
2019-05-23T08:09:19.488Z,14.77
2019-05-23T08:11:49.857Z,13.37
2019-05-23T08:14:19.481Z,14.50
2019-05-23T08:16:49.857Z,9.13
2019-05-23T08:19:20.439Z,11.63
2019-05-23T08:21:50.008Z,11.07
2019-05-23T08:24:21.146Z,9.97
2019-05-23T08:26:50.792Z,9.97
2019-05-23T08:29:26.179Z,9.07
2019-05-23T08:31:53.866Z,9.93
2019-05-23T08:34:40.096Z,9.47
2019-05-23T08:36:55.499Z,9.77
2019-05-23T08:39:26.872Z,9.73
2019-05-23T08:41:56.735Z,8.33
2019-05-23T08:44:26.293Z,12.40
2019-05-23T08:46:56.713Z,10.57
2019-05-23T08:49:27.724Z,10.90
2019-05-23T08:51:57.519Z,10.50
2019-05-23T08:54:27.257Z,14.50
2019-05-23T08:56:57.463Z,12.63
2019-05-23T08:59:28.435Z,11.60
2019-05-23T09:01:58.467Z,13.40
2019-05-23T09:04:28.012Z,12.80
2019-05-23T09:06:58.670Z,9.73
2019-05-23T09:09:30.426Z,12.03
2019-05-23T09:12:01.298Z,9.90
2019-05-23T09:14:30.929Z,16.57
2019-05-23T09:17:00.890Z,11.70
2019-05-23T09:19:30.516Z,9.43
2019-05-23T09:22:01.038Z,8.27
2019-05-23T09:24:30.597Z,11.33
2019-05-23T09:27:00.309Z,9.90
2019-05-23T09:29:30.139Z,10.40
2019-05-23T09:31:59.694Z,7.53
2019-05-23T09:34:29.870Z,10.80
2019-05-23T09:37:00.492Z,10.07
2019-05-23T09:39:30.393Z,7.57
2019-05-23T09:42:00.158Z,7.40
2019-05-23T09:44:29.776Z,7.30
2019-05-23T09:46:59.373Z,8.33
2019-05-23T09:49:29.096Z,8.03
2019-05-23T09:52:01.389Z,8.98
2019-05-23T09:54:30.714Z,6.07
2019-05-23T09:57:00.293Z,5.78
2019-05-23T09:59:30.065Z,5.20
2019-05-23T10:02:01.371Z,9.43
2019-05-23T10:04:31.123Z,6.92
2019-05-23T10:07:01.612Z,6.45
2019-05-23T10:09:31.240Z,8.30
2019-05-23T10:12:01.179Z,7.00
2019-05-23T10:14:34.920Z,7.85
2019-05-23T10:17:04.747Z,7.97
2019-05-23T10:19:35.431Z,7.78
2019-05-23T10:22:06.686Z,8.18
2019-05-23T10:24:36.530Z,11.63
2019-05-23T10:27:07.895Z,7.62
2019-05-23T10:29:37.572Z,6.65
2019-05-23T10:32:08.849Z,8.03
2019-05-23T10:34:38.532Z,6.95
2019-05-23T10:37:09.730Z,7.05
2019-05-23T10:39:40.809Z,8.48
2019-05-23T10:42:10.662Z,8.50
2019-05-23T10:44:40.226Z,6.30
2019-05-23T10:47:10.064Z,11.33
2019-05-23T10:49:39.828Z,6.75
2019-05-23T10:52:10.203Z,7.12
2019-05-23T10:54:40.298Z,6.62
2019-05-23T10:57:10.228Z,5.72
2019-05-23T10:59:40.114Z,6.47
2019-05-23T11:02:10.551Z,6.50
2019-05-23T11:04:40.774Z,6.70
2019-05-23T11:07:11.579Z,8.83
2019-05-23T11:09:41.457Z,6.42
2019-05-23T11:12:12.229Z,5.15
2019-05-23T11:14:41.783Z,6.58
2019-05-23T11:17:11.425Z,7.30
2019-05-23T11:19:41.976Z,5.47
2019-05-23T11:22:11.635Z,7.05
2019-05-23T11:24:41.182Z,6.80
2019-05-23T11:27:10.808Z,5.80
2019-05-23T11:29:40.734Z,5.55
2019-05-23T11:32:10.964Z,5.67
2019-05-23T11:34:40.591Z,5.47
2019-05-23T11:37:11.529Z,6.83
2019-05-23T11:39:49.297Z,6.42
2019-05-23T11:42:12.519Z,7.25
2019-05-23T11:44:42.310Z,7.03
2019-05-23T11:47:12.815Z,5.75
2019-05-23T11:49:44.068Z,6.25
2019-05-23T11:52:14.901Z,6.55
2019-05-23T11:54:44.791Z,5.65
2019-05-23T11:57:15.601Z,5.15
2019-05-23T11:59:53.279Z,4.40
2019-05-23T12:02:34.068Z,7.00
2019-05-23T12:05:06.373Z,6.97
2019-05-23T12:07:36.574Z,6.50
2019-05-23T12:10:07.712Z,7.53
2019-05-23T12:12:38.017Z,5.65
2019-05-23T12:15:13.517Z,6.63
2019-05-23T12:17:44.160Z,6.67
2019-05-23T12:20:15.085Z,7.70
2019-05-23T12:22:45.194Z,7.58
2019-05-23T12:25:23.012Z,8.53
2019-05-23T12:27:49.242Z,8.65
2019-05-23T12:30:19.306Z,21.93
2019-05-23T12:32:49.635Z,9.08
2019-05-23T12:35:19.255Z,8.40
2019-05-23T12:37:48.905Z,7.45
2019-05-23T12:40:19.304Z,8.98
2019-05-23T12:42:48.938Z,8.48
2019-05-23T12:45:18.991Z,10.45
2019-05-23T12:47:54.408Z,8.10
2019-05-23T12:50:31.196Z,7.75
2019-05-23T12:53:01.162Z,9.28
2019-05-23T12:55:30.822Z,7.97
2019-05-23T12:58:00.507Z,6.58
2019-05-23T13:00:35.172Z,7.62
2019-05-23T13:03:06.788Z,9.68
2019-05-23T13:05:36.623Z,10.05
2019-05-23T13:08:06.497Z,7.22
2019-05-23T13:10:36.937Z,8.18
2019-05-23T13:13:06.817Z,8.08
2019-05-23T13:15:36.370Z,8.98
2019-05-23T13:18:06.409Z,9.63
2019-05-23T13:20:37.709Z,8.25
2019-05-23T13:23:08.163Z,9.08
2019-05-23T13:25:38.859Z,8.55
2019-05-23T13:28:08.456Z,9.80
2019-05-23T13:30:38.175Z,8.78
2019-05-23T13:33:08.363Z,9.95
2019-05-23T13:35:38.295Z,7.03
2019-05-23T13:38:08.373Z,8.13
2019-05-23T13:40:37.945Z,10.14
2019-05-23T13:43:09.092Z,9.23
2019-05-23T13:45:39.122Z,10.40
2019-05-23T13:48:09.211Z,9.53
2019-05-23T13:50:39.964Z,7.22
2019-05-23T13:53:10.797Z,7.83
2019-05-23T13:55:40.679Z,7.03
2019-05-23T13:58:10.585Z,9.05
2019-05-23T14:00:40.414Z,7.30
2019-05-23T14:03:11.308Z,8.00
2019-05-23T14:05:41.059Z,7.47
2019-05-23T14:08:13.137Z,7.20
2019-05-23T14:10:42.431Z,8.10
2019-05-23T14:13:11.982Z,7.45
2019-05-23T14:15:43.542Z,5.83
2019-05-23T14:18:14.920Z,6.35
2019-05-23T14:20:44.627Z,6.28
2019-05-23T14:23:24.578Z,5.05
2019-05-23T14:25:55.058Z,5.67
2019-05-23T14:28:24.620Z,5.65
2019-05-23T14:31:08.334Z,5.97
2019-05-23T14:33:48.028Z,5.62
2019-05-23T14:36:22.816Z,5.67
2019-05-23T14:38:54.048Z,7.28
2019-05-23T14:41:24.275Z,7.47
2019-05-23T14:43:54.308Z,6.08
2019-05-23T14:46:25.970Z,5.90
2019-05-23T14:49:03.148Z,5.97
2019-05-23T14:51:40.927Z,4.30
2019-05-23T14:54:28.486Z,4.80
2019-05-23T14:56:58.086Z,4.72
2019-05-23T14:59:28.458Z,5.15
2019-05-23T15:01:58.600Z,4.65
2019-05-23T15:04:29.135Z,3.92
2019-05-23T15:06:58.767Z,4.33
2019-05-23T15:09:28.412Z,3.20
2019-05-23T15:11:58.466Z,3.50
2019-05-23T15:14:28.117Z,4.60
2019-05-23T15:16:57.751Z,3.45
2019-05-23T15:19:40.496Z,4.00
2019-05-23T15:21:58.930Z,3.15
2019-05-23T15:24:29.793Z,3.58
2019-05-23T15:26:59.484Z,3.62
2019-05-23T15:29:29.591Z,5.17
2019-05-23T15:32:02.675Z,3.10
2019-05-23T15:34:30.549Z,2.87
2019-05-23T15:37:00.182Z,2.08
2019-05-23T15:39:30.206Z,5.08
2019-05-23T15:41:59.766Z,2.63
2019-05-23T15:44:30.516Z,2.40
2019-05-23T15:47:00.549Z,2.10
2019-05-23T15:49:30.260Z,2.50
2019-05-23T15:52:02.421Z,2.33
2019-05-23T15:54:43.039Z,2.05
2019-05-23T15:57:30.185Z,2.10
2019-05-23T16:00:02.173Z,1.75
2019-05-23T16:02:34.005Z,3.13
2019-05-23T16:05:05.602Z,2.35
2019-05-23T16:07:35.764Z,1.55
2019-05-23T16:10:08.040Z,2.35
2019-05-23T16:12:38.041Z,6.70
2019-05-23T16:15:08.284Z,3.67
2019-05-23T16:17:38.020Z,2.00
2019-05-23T16:20:08.704Z,2.03
2019-05-23T16:22:38.662Z,3.33
2019-05-23T16:25:08.599Z,2.30
2019-05-23T16:27:38.809Z,2.57
2019-05-23T16:30:09.325Z,2.67
2019-05-23T16:32:39.139Z,5.55
2019-05-23T16:35:09.009Z,2.10
2019-05-23T16:37:38.565Z,1.93
2019-05-23T16:40:08.926Z,2.43
2019-05-23T16:42:38.479Z,2.33
2019-05-23T16:45:09.907Z,5.33
2019-05-23T16:47:39.552Z,4.83
2019-05-23T16:50:09.544Z,2.93
2019-05-23T16:52:39.734Z,2.60
2019-05-23T16:55:28.188Z,2.62
2019-05-23T16:57:59.757Z,3.37
2019-05-23T17:00:47.480Z,3.27
2019-05-23T17:03:18.759Z,2.20
2019-05-23T17:05:50.264Z,3.93
2019-05-23T17:08:37.609Z,2.83
2019-05-23T17:11:09.052Z,2.47
2019-05-23T17:13:40.384Z,4.00
2019-05-23T17:16:26.712Z,2.30
2019-05-23T17:18:58.094Z,3.93
2019-05-23T17:21:27.759Z,1.80
2019-05-23T17:24:02.009Z,2.40
2019-05-23T17:26:49.380Z,1.70
2019-05-23T17:29:20.919Z,2.70
2019-05-23T17:31:52.136Z,2.03
2019-05-23T17:34:22.042Z,2.30
2019-05-23T17:36:51.832Z,2.10
2019-05-23T17:39:22.057Z,1.77
2019-05-23T17:41:52.078Z,4.13
2019-05-23T17:44:22.958Z,2.10
2019-05-23T17:46:52.510Z,4.47
2019-05-23T17:49:22.312Z,4.13
2019-05-23T17:51:51.877Z,2.10
2019-05-23T17:54:21.897Z,4.03
2019-05-23T17:56:51.468Z,3.33
2019-05-23T17:59:21.094Z,3.97
2019-05-23T18:01:52.020Z,2.87
2019-05-23T18:04:21.696Z,7.53
2019-05-23T18:06:52.661Z,2.30
2019-05-23T18:09:22.357Z,2.40
2019-05-23T18:11:55.469Z,3.40
2019-05-23T18:14:24.320Z,4.00
2019-05-23T18:16:54.217Z,2.00
2019-05-23T18:19:24.076Z,2.90
2019-05-23T18:21:54.179Z,2.22
2019-05-23T18:24:23.969Z,3.30
2019-05-23T18:26:54.088Z,3.00
2019-05-23T18:29:23.930Z,2.20
2019-05-23T18:31:53.474Z,3.93
2019-05-23T18:34:23.632Z,4.53
2019-05-23T18:36:54.129Z,2.40
2019-05-23T18:39:25.143Z,3.50
2019-05-23T18:41:54.961Z,4.33
2019-05-23T18:44:25.319Z,1.90
2019-05-23T18:46:56.586Z,3.03
2019-05-23T18:49:26.958Z,3.43
2019-05-23T18:51:56.729Z,3.70
2019-05-23T18:54:26.386Z,1.70
2019-05-23T18:56:56.033Z,2.20
2019-05-23T18:59:25.920Z,2.47
2019-05-23T19:01:56.401Z,3.50
2019-05-23T19:04:26.342Z,2.83
2019-05-23T19:06:56.942Z,3.50
2019-05-23T19:09:28.216Z,2.73
2019-05-23T19:11:58.848Z,3.00
2019-05-23T19:14:28.407Z,2.13
2019-05-23T19:16:58.216Z,2.80
2019-05-23T19:19:27.923Z,3.83
2019-05-23T19:21:57.645Z,6.17
2019-05-23T19:24:27.482Z,17.20
2019-05-23T19:26:58.053Z,6.60
2019-05-23T19:29:28.011Z,7.40
2019-05-23T19:31:57.636Z,2.90
2019-05-23T19:34:27.950Z,4.17
2019-05-23T19:36:57.670Z,2.93
2019-05-23T19:39:27.982Z,4.93
2019-05-23T19:41:57.511Z,9.53
2019-05-23T19:44:27.301Z,6.73
2019-05-23T19:46:56.863Z,6.83
2019-05-23T19:49:27.537Z,4.63
2019-05-23T19:51:57.295Z,3.00
2019-05-23T19:54:28.480Z,3.07
2019-05-23T19:56:58.615Z,4.07
2019-05-23T19:59:28.725Z,4.80
2019-05-23T20:01:58.138Z,4.23
2019-05-23T20:04:31.457Z,4.87
2019-05-23T20:07:01.672Z,6.77
2019-05-23T20:09:31.998Z,6.80
2019-05-23T20:12:02.777Z,6.83
2019-05-23T20:14:32.330Z,7.63
2019-05-23T20:17:02.422Z,7.60
2019-05-23T20:19:32.057Z,7.50
2019-05-23T20:22:01.734Z,7.40
2019-05-23T20:24:31.293Z,6.50
2019-05-23T20:27:01.063Z,5.73
2019-05-23T20:29:30.606Z,6.03
2019-05-23T20:32:00.515Z,5.10
2019-05-23T20:34:30.539Z,7.00
2019-05-23T20:37:00.100Z,7.40
2019-05-23T20:39:30.831Z,6.73
2019-05-23T20:42:10.957Z,8.30
2019-05-23T20:44:32.007Z,91.70
2019-05-23T20:47:01.601Z,45.00
2019-05-23T20:49:31.899Z,16.83
2019-05-23T20:52:02.011Z,10.43
2019-05-23T20:54:33.678Z,6.40
2019-05-23T20:57:03.276Z,5.27
2019-05-23T20:59:32.908Z,5.37
2019-05-23T21:02:03.082Z,6.07
2019-05-23T21:04:32.703Z,5.53
2019-05-23T21:07:02.290Z,5.97
2019-05-23T21:09:32.055Z,7.43
2019-05-23T21:12:01.704Z,5.47
2019-05-23T21:14:31.617Z,5.47
2019-05-23T21:17:01.282Z,4.03
2019-05-23T21:19:30.886Z,5.73
2019-05-23T21:22:00.725Z,5.00
2019-05-23T21:24:32.048Z,19.70
2019-05-23T21:27:02.021Z,7.93
2019-05-23T21:29:31.619Z,5.73
2019-05-23T21:32:01.370Z,4.10
2019-05-23T21:34:31.082Z,5.33
2019-05-23T21:37:00.699Z,5.93
2019-05-23T21:39:30.261Z,5.80
2019-05-23T21:42:00.596Z,4.43
2019-05-23T21:44:30.186Z,6.27
2019-05-23T21:46:59.822Z,5.03
2019-05-23T21:49:29.653Z,4.40
2019-05-23T21:51:59.571Z,3.73
2019-05-23T21:54:29.132Z,6.43
2019-05-23T21:56:58.699Z,5.77
2019-05-23T21:59:28.373Z,4.10
2019-05-23T22:02:16.735Z,4.57
2019-05-23T22:04:48.128Z,4.73
2019-05-23T22:07:17.756Z,3.63
2019-05-23T22:09:47.688Z,3.93
2019-05-23T22:12:18.062Z,3.20
2019-05-23T22:14:48.534Z,4.30
2019-05-23T22:17:19.735Z,3.77
2019-05-23T22:19:49.286Z,4.90
2019-05-23T22:22:19.362Z,5.60
2019-05-23T22:24:48.968Z,3.07
2019-05-23T22:27:18.862Z,3.70
2019-05-23T22:29:48.532Z,4.57
2019-05-23T22:32:20.243Z,4.00
2019-05-23T22:34:51.972Z,3.83
2019-05-23T22:37:22.465Z,4.27
2019-05-23T22:39:52.046Z,3.93
2019-05-23T22:42:21.676Z,3.37
2019-05-23T22:44:51.311Z,3.60
2019-05-23T22:47:20.982Z,3.43
2019-05-23T22:49:50.765Z,3.67
2019-05-23T22:52:20.563Z,3.10
2019-05-23T22:54:50.135Z,2.47
2019-05-23T22:57:19.876Z,3.07
2019-05-23T22:59:49.515Z,2.93
2019-05-23T23:02:19.260Z,3.53
2019-05-23T23:04:49.253Z,4.07
2019-05-23T23:07:20.791Z,2.93
2019-05-23T23:09:50.420Z,3.93
2019-05-23T23:12:20.099Z,4.60
2019-05-23T23:14:49.660Z,2.63
2019-05-23T23:17:20.133Z,3.87
2019-05-23T23:19:49.728Z,2.50
2019-05-23T23:22:19.413Z,3.97
2019-05-23T23:24:49.037Z,3.03
2019-05-23T23:27:20.260Z,2.80
2019-05-23T23:29:51.628Z,2.93
2019-05-23T23:32:21.370Z,3.73
2019-05-23T23:34:51.057Z,4.03
2019-05-23T23:37:20.946Z,4.07
2019-05-23T23:39:50.645Z,2.40
2019-05-23T23:42:20.250Z,3.63
2019-05-23T23:44:49.197Z,5.83
2019-05-23T23:47:36.220Z,2.97
2019-05-23T23:50:25.531Z,3.87
2019-05-23T23:53:12.901Z,3.37
2019-05-23T23:56:01.752Z,3.90
2019-05-23T23:58:31.163Z,3.10
